sensor_id;sensor_type;location;lat;lon;timestamp;temperature;humidity
13322;DHT22;6730;46.248;6.930;2023-07-30T00:01:54;17.90;99.90
13322;DHT22;6730;46.248;6.930;2023-07-30T00:04:19;17.80;99.90
13322;DHT22;6730;46.248;6.930;2023-07-30T00:06:46;17.60;99.90
13322;DHT22;6730;46.248;6.930;2023-07-30T00:09:12;17.30;99.90
13322;DHT22;6730;46.248;6.930;2023-07-30T00:11:38;17.20;99.90
13322;DHT22;6730;46.248;6.930;2023-07-30T00:14:04;17.20;99.90
13322;DHT22;6730;46.248;6.930;2023-07-30T00:16:29;17.20;99.90
13322;DHT22;6730;46.248;6.930;2023-07-30T00:18:55;17.20;99.90
13322;DHT22;6730;46.248;6.930;2023-07-30T00:21:22;17.50;99.90
13322;DHT22;6730;46.248;6.930;2023-07-30T00:23:48;17.80;99.90
13322;DHT22;6730;46.248;6.930;2023-07-30T00:26:13;17.70;99.90
13322;DHT22;6730;46.248;6.930;2023-07-30T00:28:39;17.70;99.90
13322;DHT22;6730;46.248;6.930;2023-07-30T00:31:05;17.80;99.90
13322;DHT22;6730;46.248;6.930;2023-07-30T00:33:30;17.90;99.90
13322;DHT22;6730;46.248;6.930;2023-07-30T00:35:56;18.10;99.90
13322;DHT22;6730;46.248;6.930;2023-07-30T00:38:21;18.30;99.90
13322;DHT22;6730;46.248;6.930;2023-07-30T00:40:47;18.30;99.90
13322;DHT22;6730;46.248;6.930;2023-07-30T00:43:13;18.40;99.90
13322;DHT22;6730;46.248;6.930;2023-07-30T00:45:41;18.30;99.90
13322;DHT22;6730;46.248;6.930;2023-07-30T00:48:09;18.10;99.90
13322;DHT22;6730;46.248;6.930;2023-07-30T00:50:35;17.80;99.90
13322;DHT22;6730;46.248;6.930;2023-07-30T00:53:00;17.40;99.90
13322;DHT22;6730;46.248;6.930;2023-07-30T00:55:26;17.30;99.90
13322;DHT22;6730;46.248;6.930;2023-07-30T00:57:52;17.60;99.90
13322;DHT22;6730;46.248;6.930;2023-07-30T01:00:18;17.50;99.90
13322;DHT22;6730;46.248;6.930;2023-07-30T01:02:44;17.50;99.90
13322;DHT22;6730;46.248;6.930;2023-07-30T01:05:09;17.70;99.90
13322;DHT22;6730;46.248;6.930;2023-07-30T01:07:35;17.90;99.90
13322;DHT22;6730;46.248;6.930;2023-07-30T01:10:01;17.90;99.90
13322;DHT22;6730;46.248;6.930;2023-07-30T01:12:29;18.00;99.90
13322;DHT22;6730;46.248;6.930;2023-07-30T01:14:56;18.00;99.90
13322;DHT22;6730;46.248;6.930;2023-07-30T01:17:22;18.10;99.90
13322;DHT22;6730;46.248;6.930;2023-07-30T01:19:54;18.00;99.90
13322;DHT22;6730;46.248;6.930;2023-07-30T01:22:21;17.70;99.90
13322;DHT22;6730;46.248;6.930;2023-07-30T01:24:47;17.70;99.90
13322;DHT22;6730;46.248;6.930;2023-07-30T01:27:28;17.60;99.90
13322;DHT22;6730;46.248;6.930;2023-07-30T01:30:05;17.60;99.90
13322;DHT22;6730;46.248;6.930;2023-07-30T01:32:32;17.70;99.90
13322;DHT22;6730;46.248;6.930;2023-07-30T01:35:01;17.90;99.90
13322;DHT22;6730;46.248;6.930;2023-07-30T01:37:29;18.10;99.90
13322;DHT22;6730;46.248;6.930;2023-07-30T01:39:56;18.20;99.90
13322;DHT22;6730;46.248;6.930;2023-07-30T01:42:28;18.20;99.90
13322;DHT22;6730;46.248;6.930;2023-07-30T01:44:53;18.20;99.90
13322;DHT22;6730;46.248;6.930;2023-07-30T01:47:19;18.30;99.90
13322;DHT22;6730;46.248;6.930;2023-07-30T01:49:45;18.20;99.90
13322;DHT22;6730;46.248;6.930;2023-07-30T01:52:10;18.20;99.90
13322;DHT22;6730;46.248;6.930;2023-07-30T01:54:36;18.30;99.90
13322;DHT22;6730;46.248;6.930;2023-07-30T01:57:02;18.20;99.90
13322;DHT22;6730;46.248;6.930;2023-07-30T01:59:28;17.80;99.90
13322;DHT22;6730;46.248;6.930;2023-07-30T02:01:53;17.70;99.90
13322;DHT22;6730;46.248;6.930;2023-07-30T02:04:19;17.90;99.90
13322;DHT22;6730;46.248;6.930;2023-07-30T02:06:47;17.90;99.90
13322;DHT22;6730;46.248;6.930;2023-07-30T02:09:13;17.90;99.90
13322;DHT22;6730;46.248;6.930;2023-07-30T02:11:39;18.00;99.90
13322;DHT22;6730;46.248;6.930;2023-07-30T02:14:05;18.00;99.90
13322;DHT22;6730;46.248;6.930;2023-07-30T02:16:31;18.00;99.90
13322;DHT22;6730;46.248;6.930;2023-07-30T02:18:56;18.10;99.90
13322;DHT22;6730;46.248;6.930;2023-07-30T02:21:22;18.00;99.90
13322;DHT22;6730;46.248;6.930;2023-07-30T02:23:47;17.90;99.90
13322;DHT22;6730;46.248;6.930;2023-07-30T02:26:13;17.60;99.90
13322;DHT22;6730;46.248;6.930;2023-07-30T02:28:39;17.50;99.90
13322;DHT22;6730;46.248;6.930;2023-07-30T02:31:04;17.40;99.90
13322;DHT22;6730;46.248;6.930;2023-07-30T02:33:30;17.50;99.90
13322;DHT22;6730;46.248;6.930;2023-07-30T02:35:55;17.50;99.90
13322;DHT22;6730;46.248;6.930;2023-07-30T02:38:21;17.70;99.90
13322;DHT22;6730;46.248;6.930;2023-07-30T02:40:50;17.80;99.90
13322;DHT22;6730;46.248;6.930;2023-07-30T02:43:15;17.80;99.90
13322;DHT22;6730;46.248;6.930;2023-07-30T02:45:41;17.90;99.90
13322;DHT22;6730;46.248;6.930;2023-07-30T02:48:07;18.00;99.90
13322;DHT22;6730;46.248;6.930;2023-07-30T02:50:32;18.00;99.90
13322;DHT22;6730;46.248;6.930;2023-07-30T02:52:58;18.00;99.90
13322;DHT22;6730;46.248;6.930;2023-07-30T02:55:23;18.00;99.90
13322;DHT22;6730;46.248;6.930;2023-07-30T02:57:49;18.10;99.90
13322;DHT22;6730;46.248;6.930;2023-07-30T03:00:15;18.00;99.90
13322;DHT22;6730;46.248;6.930;2023-07-30T03:02:40;18.00;99.90
13322;DHT22;6730;46.248;6.930;2023-07-30T03:05:06;18.00;99.90
13322;DHT22;6730;46.248;6.930;2023-07-30T03:07:32;17.80;99.90
13322;DHT22;6730;46.248;6.930;2023-07-30T03:09:58;17.90;99.90
13322;DHT22;6730;46.248;6.930;2023-07-30T03:12:23;18.00;99.90
13322;DHT22;6730;46.248;6.930;2023-07-30T03:14:49;18.10;99.90
13322;DHT22;6730;46.248;6.930;2023-07-30T03:17:15;18.10;99.90
13322;DHT22;6730;46.248;6.930;2023-07-30T03:19:40;18.10;99.90
13322;DHT22;6730;46.248;6.930;2023-07-30T03:22:06;18.00;99.90
13322;DHT22;6730;46.248;6.930;2023-07-30T03:24:32;17.80;99.90
13322;DHT22;6730;46.248;6.930;2023-07-30T03:26:57;18.00;99.90
13322;DHT22;6730;46.248;6.930;2023-07-30T03:29:23;18.00;99.90
13322;DHT22;6730;46.248;6.930;2023-07-30T03:31:48;17.80;99.90
13322;DHT22;6730;46.248;6.930;2023-07-30T03:34:14;17.90;99.90
13322;DHT22;6730;46.248;6.930;2023-07-30T03:36:40;18.20;99.90
13322;DHT22;6730;46.248;6.930;2023-07-30T03:39:05;18.20;99.90
13322;DHT22;6730;46.248;6.930;2023-07-30T03:41:31;18.00;99.90
13322;DHT22;6730;46.248;6.930;2023-07-30T03:43:57;17.90;99.90
13322;DHT22;6730;46.248;6.930;2023-07-30T03:46:22;17.80;99.90
13322;DHT22;6730;46.248;6.930;2023-07-30T03:48:48;17.80;99.90
13322;DHT22;6730;46.248;6.930;2023-07-30T03:51:14;17.60;99.90
13322;DHT22;6730;46.248;6.930;2023-07-30T03:53:39;17.70;99.90
13322;DHT22;6730;46.248;6.930;2023-07-30T03:56:05;18.00;99.90
13322;DHT22;6730;46.248;6.930;2023-07-30T03:58:30;18.10;99.90
13322;DHT22;6730;46.248;6.930;2023-07-30T04:00:56;18.10;99.90
13322;DHT22;6730;46.248;6.930;2023-07-30T04:03:22;18.10;99.90
13322;DHT22;6730;46.248;6.930;2023-07-30T04:05:47;17.90;99.90
13322;DHT22;6730;46.248;6.930;2023-07-30T04:08:13;17.90;99.90
13322;DHT22;6730;46.248;6.930;2023-07-30T04:10:39;18.10;99.90
13322;DHT22;6730;46.248;6.930;2023-07-30T04:13:05;18.00;99.90
13322;DHT22;6730;46.248;6.930;2023-07-30T04:15:33;18.20;99.90
13322;DHT22;6730;46.248;6.930;2023-07-30T04:17:59;17.90;99.90
13322;DHT22;6730;46.248;6.930;2023-07-30T04:20:24;17.50;99.90
13322;DHT22;6730;46.248;6.930;2023-07-30T04:22:51;17.70;99.90
13322;DHT22;6730;46.248;6.930;2023-07-30T04:25:17;17.80;99.90
13322;DHT22;6730;46.248;6.930;2023-07-30T04:27:44;17.90;99.90
13322;DHT22;6730;46.248;6.930;2023-07-30T04:30:10;18.00;99.90
13322;DHT22;6730;46.248;6.930;2023-07-30T04:32:36;18.20;99.90
13322;DHT22;6730;46.248;6.930;2023-07-30T04:35:02;18.10;99.90
13322;DHT22;6730;46.248;6.930;2023-07-30T04:37:28;18.00;99.90
13322;DHT22;6730;46.248;6.930;2023-07-30T04:39:54;18.00;99.90
13322;DHT22;6730;46.248;6.930;2023-07-30T04:42:20;18.10;99.90
13322;DHT22;6730;46.248;6.930;2023-07-30T04:44:45;17.90;99.90
13322;DHT22;6730;46.248;6.930;2023-07-30T04:47:11;17.80;99.90
13322;DHT22;6730;46.248;6.930;2023-07-30T04:49:36;17.80;99.90
13322;DHT22;6730;46.248;6.930;2023-07-30T04:52:06;17.90;99.90
13322;DHT22;6730;46.248;6.930;2023-07-30T04:54:32;18.30;99.90
13322;DHT22;6730;46.248;6.930;2023-07-30T04:56:58;18.40;99.90
13322;DHT22;6730;46.248;6.930;2023-07-30T04:59:23;18.30;99.90
13322;DHT22;6730;46.248;6.930;2023-07-30T05:01:49;18.10;99.90
13322;DHT22;6730;46.248;6.930;2023-07-30T05:04:14;18.10;99.90
13322;DHT22;6730;46.248;6.930;2023-07-30T05:06:40;18.30;99.90
13322;DHT22;6730;46.248;6.930;2023-07-30T05:09:06;18.20;99.90
13322;DHT22;6730;46.248;6.930;2023-07-30T05:11:31;18.10;99.90
13322;DHT22;6730;46.248;6.930;2023-07-30T05:13:57;18.10;99.90
13322;DHT22;6730;46.248;6.930;2023-07-30T05:16:23;18.20;99.90
13322;DHT22;6730;46.248;6.930;2023-07-30T05:18:48;17.40;99.90
13322;DHT22;6730;46.248;6.930;2023-07-30T05:21:14;17.50;99.90
13322;DHT22;6730;46.248;6.930;2023-07-30T05:23:39;17.90;99.90
13322;DHT22;6730;46.248;6.930;2023-07-30T05:26:05;18.30;99.90
13322;DHT22;6730;46.248;6.930;2023-07-30T05:28:31;18.70;99.90
13322;DHT22;6730;46.248;6.930;2023-07-30T05:30:56;18.90;99.90
13322;DHT22;6730;46.248;6.930;2023-07-30T05:33:22;18.80;99.90
13322;DHT22;6730;46.248;6.930;2023-07-30T05:35:48;19.00;99.90
13322;DHT22;6730;46.248;6.930;2023-07-30T05:38:13;19.10;99.90
13322;DHT22;6730;46.248;6.930;2023-07-30T05:40:39;19.10;99.90
13322;DHT22;6730;46.248;6.930;2023-07-30T05:43:04;19.30;99.90
13322;DHT22;6730;46.248;6.930;2023-07-30T05:45:30;19.30;99.90
13322;DHT22;6730;46.248;6.930;2023-07-30T05:47:56;19.00;99.90
13322;DHT22;6730;46.248;6.930;2023-07-30T05:50:21;18.70;99.90
13322;DHT22;6730;46.248;6.930;2023-07-30T05:52:47;18.50;99.90
13322;DHT22;6730;46.248;6.930;2023-07-30T05:55:12;18.80;99.90
13322;DHT22;6730;46.248;6.930;2023-07-30T05:57:38;19.10;99.90
13322;DHT22;6730;46.248;6.930;2023-07-30T06:00:04;19.30;99.90
13322;DHT22;6730;46.248;6.930;2023-07-30T06:02:30;18.70;99.90
13322;DHT22;6730;46.248;6.930;2023-07-30T06:04:55;18.70;99.90
13322;DHT22;6730;46.248;6.930;2023-07-30T06:07:21;18.90;99.90
13322;DHT22;6730;46.248;6.930;2023-07-30T06:09:47;19.20;99.90
13322;DHT22;6730;46.248;6.930;2023-07-30T06:12:12;19.40;99.90
13322;DHT22;6730;46.248;6.930;2023-07-30T06:14:38;19.20;99.90
13322;DHT22;6730;46.248;6.930;2023-07-30T06:17:04;18.70;99.90
13322;DHT22;6730;46.248;6.930;2023-07-30T06:19:29;18.50;99.90
13322;DHT22;6730;46.248;6.930;2023-07-30T06:21:55;18.60;99.90
13322;DHT22;6730;46.248;6.930;2023-07-30T06:24:21;18.60;99.90
13322;DHT22;6730;46.248;6.930;2023-07-30T06:26:47;18.30;99.90
13322;DHT22;6730;46.248;6.930;2023-07-30T06:29:14;18.00;99.90
13322;DHT22;6730;46.248;6.930;2023-07-30T06:31:40;17.60;99.90
13322;DHT22;6730;46.248;6.930;2023-07-30T06:34:06;17.40;99.90
13322;DHT22;6730;46.248;6.930;2023-07-30T06:36:32;17.90;99.90
13322;DHT22;6730;46.248;6.930;2023-07-30T06:38:57;18.40;99.90
13322;DHT22;6730;46.248;6.930;2023-07-30T06:41:24;18.80;99.90
13322;DHT22;6730;46.248;6.930;2023-07-30T06:43:50;19.00;99.90
13322;DHT22;6730;46.248;6.930;2023-07-30T06:46:16;19.10;99.90
13322;DHT22;6730;46.248;6.930;2023-07-30T06:48:59;19.40;99.90
13322;DHT22;6730;46.248;6.930;2023-07-30T06:51:25;19.70;99.90
13322;DHT22;6730;46.248;6.930;2023-07-30T06:53:51;19.90;99.90
13322;DHT22;6730;46.248;6.930;2023-07-30T06:56:16;19.90;99.90
13322;DHT22;6730;46.248;6.930;2023-07-30T06:58:42;19.90;99.90
13322;DHT22;6730;46.248;6.930;2023-07-30T07:01:07;20.00;99.90
13322;DHT22;6730;46.248;6.930;2023-07-30T07:03:34;20.20;99.90
13322;DHT22;6730;46.248;6.930;2023-07-30T07:06:00;19.90;99.90
13322;DHT22;6730;46.248;6.930;2023-07-30T07:08:25;19.90;99.90
13322;DHT22;6730;46.248;6.930;2023-07-30T07:10:52;19.90;99.90
13322;DHT22;6730;46.248;6.930;2023-07-30T07:13:18;19.80;99.90
13322;DHT22;6730;46.248;6.930;2023-07-30T07:15:44;20.00;99.90
13322;DHT22;6730;46.248;6.930;2023-07-30T07:18:10;20.10;99.90
13322;DHT22;6730;46.248;6.930;2023-07-30T07:20:37;20.00;99.90
13322;DHT22;6730;46.248;6.930;2023-07-30T07:23:03;20.10;99.90
13322;DHT22;6730;46.248;6.930;2023-07-30T07:25:28;19.60;99.90
13322;DHT22;6730;46.248;6.930;2023-07-30T07:27:54;19.60;99.90
13322;DHT22;6730;46.248;6.930;2023-07-30T07:30:19;19.60;99.90
13322;DHT22;6730;46.248;6.930;2023-07-30T07:32:45;19.10;99.90
13322;DHT22;6730;46.248;6.930;2023-07-30T07:35:15;18.40;99.90
13322;DHT22;6730;46.248;6.930;2023-07-30T07:37:41;17.70;99.90
13322;DHT22;6730;46.248;6.930;2023-07-30T07:40:07;17.60;99.90
13322;DHT22;6730;46.248;6.930;2023-07-30T07:42:35;18.00;99.90
13322;DHT22;6730;46.248;6.930;2023-07-30T07:45:00;18.50;99.90
13322;DHT22;6730;46.248;6.930;2023-07-30T07:47:26;19.10;99.90
13322;DHT22;6730;46.248;6.930;2023-07-30T07:49:52;19.80;99.90
13322;DHT22;6730;46.248;6.930;2023-07-30T07:52:17;20.00;99.90
13322;DHT22;6730;46.248;6.930;2023-07-30T07:54:44;19.10;99.90
13322;DHT22;6730;46.248;6.930;2023-07-30T07:57:10;19.00;99.90
13322;DHT22;6730;46.248;6.930;2023-07-30T07:59:36;19.70;99.90
13322;DHT22;6730;46.248;6.930;2023-07-30T08:02:02;20.50;99.90
13322;DHT22;6730;46.248;6.930;2023-07-30T08:04:28;20.30;99.90
13322;DHT22;6730;46.248;6.930;2023-07-30T08:06:53;20.30;99.90
13322;DHT22;6730;46.248;6.930;2023-07-30T08:09:19;20.10;99.90
13322;DHT22;6730;46.248;6.930;2023-07-30T08:11:44;19.90;99.90
13322;DHT22;6730;46.248;6.930;2023-07-30T08:14:10;19.50;99.90
13322;DHT22;6730;46.248;6.930;2023-07-30T08:16:36;19.30;99.90
13322;DHT22;6730;46.248;6.930;2023-07-30T08:19:02;19.10;99.90
13322;DHT22;6730;46.248;6.930;2023-07-30T08:21:27;19.00;99.90
13322;DHT22;6730;46.248;6.930;2023-07-30T08:23:53;19.10;99.90
13322;DHT22;6730;46.248;6.930;2023-07-30T08:26:18;19.20;99.90
13322;DHT22;6730;46.248;6.930;2023-07-30T08:28:44;19.20;99.90
13322;DHT22;6730;46.248;6.930;2023-07-30T08:31:10;19.70;99.90
13322;DHT22;6730;46.248;6.930;2023-07-30T08:33:35;20.20;99.90
13322;DHT22;6730;46.248;6.930;2023-07-30T08:36:01;20.50;99.90
13322;DHT22;6730;46.248;6.930;2023-07-30T08:38:28;20.90;99.90
13322;DHT22;6730;46.248;6.930;2023-07-30T08:40:53;21.30;99.90
13322;DHT22;6730;46.248;6.930;2023-07-30T08:43:19;21.50;99.90
13322;DHT22;6730;46.248;6.930;2023-07-30T08:45:45;21.40;99.90
13322;DHT22;6730;46.248;6.930;2023-07-30T08:48:11;21.30;99.90
13322;DHT22;6730;46.248;6.930;2023-07-30T08:50:37;21.40;99.90
13322;DHT22;6730;46.248;6.930;2023-07-30T08:53:03;21.50;99.90
13322;DHT22;6730;46.248;6.930;2023-07-30T08:55:33;21.00;99.90
13322;DHT22;6730;46.248;6.930;2023-07-30T08:58:01;20.50;99.90
13322;DHT22;6730;46.248;6.930;2023-07-30T09:00:31;20.30;99.90
13322;DHT22;6730;46.248;6.930;2023-07-30T09:02:59;20.40;99.90
13322;DHT22;6730;46.248;6.930;2023-07-30T09:05:26;20.70;99.90
13322;DHT22;6730;46.248;6.930;2023-07-30T09:07:55;21.00;99.90
13322;DHT22;6730;46.248;6.930;2023-07-30T09:10:21;21.10;99.90
13322;DHT22;6730;46.248;6.930;2023-07-30T09:12:55;21.10;99.90
13322;DHT22;6730;46.248;6.930;2023-07-30T09:15:34;21.20;99.90
13322;DHT22;6730;46.248;6.930;2023-07-30T09:18:01;20.60;99.90
13322;DHT22;6730;46.248;6.930;2023-07-30T09:20:27;20.30;99.90
13322;DHT22;6730;46.248;6.930;2023-07-30T09:22:56;20.10;99.90
13322;DHT22;6730;46.248;6.930;2023-07-30T09:25:22;20.70;99.90
13322;DHT22;6730;46.248;6.930;2023-07-30T09:27:51;20.50;99.90
13322;DHT22;6730;46.248;6.930;2023-07-30T09:30:24;20.00;99.90
13322;DHT22;6730;46.248;6.930;2023-07-30T09:32:55;20.10;99.90
13322;DHT22;6730;46.248;6.930;2023-07-30T09:35:21;20.00;99.90
13322;DHT22;6730;46.248;6.930;2023-07-30T09:37:47;20.20;99.90
13322;DHT22;6730;46.248;6.930;2023-07-30T09:40:14;20.50;99.90
13322;DHT22;6730;46.248;6.930;2023-07-30T09:42:44;20.80;99.90
13322;DHT22;6730;46.248;6.930;2023-07-30T09:45:19;21.20;99.90
13322;DHT22;6730;46.248;6.930;2023-07-30T09:47:49;21.10;99.90
13322;DHT22;6730;46.248;6.930;2023-07-30T09:50:16;21.00;99.90
13322;DHT22;6730;46.248;6.930;2023-07-30T09:52:42;21.20;99.90
13322;DHT22;6730;46.248;6.930;2023-07-30T09:55:09;21.00;99.90
13322;DHT22;6730;46.248;6.930;2023-07-30T09:57:36;20.80;99.90
13322;DHT22;6730;46.248;6.930;2023-07-30T10:00:03;20.80;99.90
13322;DHT22;6730;46.248;6.930;2023-07-30T10:02:29;20.90;99.90
13322;DHT22;6730;46.248;6.930;2023-07-30T10:04:59;21.00;99.90
13322;DHT22;6730;46.248;6.930;2023-07-30T10:07:28;21.20;99.90
13322;DHT22;6730;46.248;6.930;2023-07-30T10:09:57;21.40;99.90
13322;DHT22;6730;46.248;6.930;2023-07-30T10:12:27;21.60;99.90
13322;DHT22;6730;46.248;6.930;2023-07-30T10:14:54;21.70;99.90
13322;DHT22;6730;46.248;6.930;2023-07-30T10:17:20;22.10;99.90
13322;DHT22;6730;46.248;6.930;2023-07-30T10:19:50;22.10;99.90
13322;DHT22;6730;46.248;6.930;2023-07-30T10:27:24;22.30;99.90
13322;DHT22;6730;46.248;6.930;2023-07-30T10:30:14;22.20;99.90
13322;DHT22;6730;46.248;6.930;2023-07-30T10:35:43;22.20;99.90
13322;DHT22;6730;46.248;6.930;2023-07-30T10:38:22;21.90;99.90
13322;DHT22;6730;46.248;6.930;2023-07-30T10:41:03;21.80;99.90
13322;DHT22;6730;46.248;6.930;2023-07-30T10:43:30;21.60;99.90
13322;DHT22;6730;46.248;6.930;2023-07-30T10:45:56;21.70;99.90
13322;DHT22;6730;46.248;6.930;2023-07-30T10:48:35;22.00;99.90
13322;DHT22;6730;46.248;6.930;2023-07-30T10:51:05;22.10;99.90
13322;DHT22;6730;46.248;6.930;2023-07-30T10:53:32;22.00;99.90
13322;DHT22;6730;46.248;6.930;2023-07-30T10:56:01;22.10;99.90
13322;DHT22;6730;46.248;6.930;2023-07-30T10:58:32;21.70;99.90
13322;DHT22;6730;46.248;6.930;2023-07-30T11:00:58;21.70;99.90
13322;DHT22;6730;46.248;6.930;2023-07-30T11:03:26;21.70;99.90
13322;DHT22;6730;46.248;6.930;2023-07-30T11:05:52;21.80;99.90
13322;DHT22;6730;46.248;6.930;2023-07-30T11:08:18;22.20;99.90
13322;DHT22;6730;46.248;6.930;2023-07-30T11:10:45;22.50;99.90
13322;DHT22;6730;46.248;6.930;2023-07-30T11:13:15;22.60;99.90
13322;DHT22;6730;46.248;6.930;2023-07-30T11:15:44;23.00;99.90
13322;DHT22;6730;46.248;6.930;2023-07-30T11:18:12;23.20;99.90
13322;DHT22;6730;46.248;6.930;2023-07-30T11:20:38;23.10;99.90
13322;DHT22;6730;46.248;6.930;2023-07-30T11:23:26;22.80;99.90
13322;DHT22;6730;46.248;6.930;2023-07-30T11:25:52;22.60;99.90
13322;DHT22;6730;46.248;6.930;2023-07-30T11:28:36;22.40;99.90
13322;DHT22;6730;46.248;6.930;2023-07-30T11:31:07;22.10;99.90
13322;DHT22;6730;46.248;6.930;2023-07-30T11:33:36;22.10;99.90
13322;DHT22;6730;46.248;6.930;2023-07-30T11:36:28;22.10;99.90
13322;DHT22;6730;46.248;6.930;2023-07-30T11:38:54;22.10;99.90
13322;DHT22;6730;46.248;6.930;2023-07-30T11:41:29;22.20;99.90
13322;DHT22;6730;46.248;6.930;2023-07-30T11:43:55;22.30;99.90
13322;DHT22;6730;46.248;6.930;2023-07-30T11:46:21;22.20;99.90
13322;DHT22;6730;46.248;6.930;2023-07-30T11:48:49;22.10;99.90
13322;DHT22;6730;46.248;6.930;2023-07-30T11:51:20;22.30;99.90
13322;DHT22;6730;46.248;6.930;2023-07-30T11:53:52;22.40;99.90
13322;DHT22;6730;46.248;6.930;2023-07-30T11:58:48;22.70;99.90
13322;DHT22;6730;46.248;6.930;2023-07-30T12:01:15;22.80;99.90
13322;DHT22;6730;46.248;6.930;2023-07-30T12:03:41;22.90;99.90
13322;DHT22;6730;46.248;6.930;2023-07-30T12:06:09;22.70;99.90
13322;DHT22;6730;46.248;6.930;2023-07-30T12:08:35;22.80;99.90
13322;DHT22;6730;46.248;6.930;2023-07-30T12:11:08;22.80;99.90
13322;DHT22;6730;46.248;6.930;2023-07-30T12:13:42;22.60;99.90
13322;DHT22;6730;46.248;6.930;2023-07-30T12:16:09;22.90;99.90
13322;DHT22;6730;46.248;6.930;2023-07-30T12:18:35;22.80;99.90
13322;DHT22;6730;46.248;6.930;2023-07-30T12:21:00;22.90;99.90
13322;DHT22;6730;46.248;6.930;2023-07-30T12:23:26;22.90;99.90
13322;DHT22;6730;46.248;6.930;2023-07-30T12:25:52;23.10;99.90
13322;DHT22;6730;46.248;6.930;2023-07-30T12:28:18;23.30;99.90
13322;DHT22;6730;46.248;6.930;2023-07-30T12:30:44;23.40;99.90
13322;DHT22;6730;46.248;6.930;2023-07-30T12:33:09;23.50;99.90
13322;DHT22;6730;46.248;6.930;2023-07-30T12:35:35;23.80;99.90
13322;DHT22;6730;46.248;6.930;2023-07-30T12:38:01;24.00;99.90
13322;DHT22;6730;46.248;6.930;2023-07-30T12:40:33;24.00;99.90
13322;DHT22;6730;46.248;6.930;2023-07-30T12:43:02;24.00;99.90
13322;DHT22;6730;46.248;6.930;2023-07-30T12:45:29;24.10;99.90
13322;DHT22;6730;46.248;6.930;2023-07-30T12:47:55;23.90;99.90
13322;DHT22;6730;46.248;6.930;2023-07-30T12:50:21;23.50;99.90
13322;DHT22;6730;46.248;6.930;2023-07-30T12:52:46;22.70;99.90
13322;DHT22;6730;46.248;6.930;2023-07-30T12:55:12;22.90;99.90
13322;DHT22;6730;46.248;6.930;2023-07-30T12:57:38;23.30;99.90
13322;DHT22;6730;46.248;6.930;2023-07-30T13:00:04;23.50;99.90
13322;DHT22;6730;46.248;6.930;2023-07-30T13:02:30;23.50;99.90
13322;DHT22;6730;46.248;6.930;2023-07-30T13:04:59;23.40;99.90
13322;DHT22;6730;46.248;6.930;2023-07-30T13:07:25;23.30;99.90
13322;DHT22;6730;46.248;6.930;2023-07-30T13:10:05;23.30;99.90
13322;DHT22;6730;46.248;6.930;2023-07-30T13:12:31;23.30;99.90
13322;DHT22;6730;46.248;6.930;2023-07-30T13:14:57;23.30;99.90
13322;DHT22;6730;46.248;6.930;2023-07-30T13:17:22;23.30;99.90
13322;DHT22;6730;46.248;6.930;2023-07-30T13:19:48;23.10;99.90
13322;DHT22;6730;46.248;6.930;2023-07-30T13:22:14;23.20;99.90
13322;DHT22;6730;46.248;6.930;2023-07-30T13:24:39;23.40;99.90
13322;DHT22;6730;46.248;6.930;2023-07-30T13:27:05;23.40;99.90
13322;DHT22;6730;46.248;6.930;2023-07-30T13:29:31;23.20;99.90
13322;DHT22;6730;46.248;6.930;2023-07-30T13:31:57;23.30;99.90
13322;DHT22;6730;46.248;6.930;2023-07-30T13:34:22;23.30;99.90
13322;DHT22;6730;46.248;6.930;2023-07-30T13:36:48;23.30;99.90
13322;DHT22;6730;46.248;6.930;2023-07-30T13:39:13;23.30;99.90
13322;DHT22;6730;46.248;6.930;2023-07-30T13:41:39;23.30;99.90
13322;DHT22;6730;46.248;6.930;2023-07-30T13:44:05;23.40;99.90
13322;DHT22;6730;46.248;6.930;2023-07-30T13:46:31;23.30;99.90
13322;DHT22;6730;46.248;6.930;2023-07-30T13:48:56;23.30;99.90
13322;DHT22;6730;46.248;6.930;2023-07-30T13:51:22;23.20;99.90
13322;DHT22;6730;46.248;6.930;2023-07-30T13:53:48;23.30;99.90
13322;DHT22;6730;46.248;6.930;2023-07-30T13:56:14;23.20;99.90
13322;DHT22;6730;46.248;6.930;2023-07-30T13:58:40;23.10;99.90
13322;DHT22;6730;46.248;6.930;2023-07-30T14:01:06;22.70;99.90
13322;DHT22;6730;46.248;6.930;2023-07-30T14:03:34;22.70;99.90
13322;DHT22;6730;46.248;6.930;2023-07-30T14:05:59;22.90;99.90
13322;DHT22;6730;46.248;6.930;2023-07-30T14:08:25;22.60;99.90
13322;DHT22;6730;46.248;6.930;2023-07-30T14:10:51;22.50;99.90
13322;DHT22;6730;46.248;6.930;2023-07-30T14:13:16;22.70;99.90
13322;DHT22;6730;46.248;6.930;2023-07-30T14:15:42;23.00;99.90
13322;DHT22;6730;46.248;6.930;2023-07-30T14:18:24;23.30;99.90
13322;DHT22;6730;46.248;6.930;2023-07-30T14:20:55;23.70;99.90
13322;DHT22;6730;46.248;6.930;2023-07-30T14:23:21;23.60;99.90
13322;DHT22;6730;46.248;6.930;2023-07-30T14:25:46;23.80;99.90
13322;DHT22;6730;46.248;6.930;2023-07-30T14:28:18;23.80;99.90
13322;DHT22;6730;46.248;6.930;2023-07-30T14:30:44;23.70;99.90
13322;DHT22;6730;46.248;6.930;2023-07-30T14:33:13;23.80;99.90
13322;DHT22;6730;46.248;6.930;2023-07-30T14:35:39;23.50;99.90
13322;DHT22;6730;46.248;6.930;2023-07-30T14:38:05;23.20;99.90
13322;DHT22;6730;46.248;6.930;2023-07-30T14:40:32;23.10;99.90
13322;DHT22;6730;46.248;6.930;2023-07-30T14:42:57;23.00;99.90
13322;DHT22;6730;46.248;6.930;2023-07-30T14:45:23;22.90;99.90
13322;DHT22;6730;46.248;6.930;2023-07-30T14:47:49;22.70;99.90
13322;DHT22;6730;46.248;6.930;2023-07-30T14:50:14;22.50;99.90
13322;DHT22;6730;46.248;6.930;2023-07-30T14:52:40;22.50;99.90
13322;DHT22;6730;46.248;6.930;2023-07-30T14:55:06;22.50;99.90
13322;DHT22;6730;46.248;6.930;2023-07-30T14:57:32;22.50;99.90
13322;DHT22;6730;46.248;6.930;2023-07-30T14:59:58;22.50;99.90
13322;DHT22;6730;46.248;6.930;2023-07-30T15:02:26;22.50;99.70
13322;DHT22;6730;46.248;6.930;2023-07-30T15:04:55;22.40;98.70
13322;DHT22;6730;46.248;6.930;2023-07-30T15:07:21;22.50;98.90
13322;DHT22;6730;46.248;6.930;2023-07-30T15:09:52;22.60;99.50
13322;DHT22;6730;46.248;6.930;2023-07-30T15:12:18;22.60;99.60
13322;DHT22;6730;46.248;6.930;2023-07-30T15:14:43;22.60;99.30
13322;DHT22;6730;46.248;6.930;2023-07-30T15:17:09;22.50;98.90
13322;DHT22;6730;46.248;6.930;2023-07-30T15:19:34;22.40;98.70
13322;DHT22;6730;46.248;6.930;2023-07-30T15:22:00;22.30;99.00
13322;DHT22;6730;46.248;6.930;2023-07-30T15:24:26;22.40;97.50
13322;DHT22;6730;46.248;6.930;2023-07-30T15:26:52;22.50;98.60
13322;DHT22;6730;46.248;6.930;2023-07-30T15:29:17;22.60;98.70
13322;DHT22;6730;46.248;6.930;2023-07-30T15:31:44;22.70;99.30
13322;DHT22;6730;46.248;6.930;2023-07-30T15:34:10;22.90;99.40
13322;DHT22;6730;46.248;6.930;2023-07-30T15:36:37;23.00;98.70
13322;DHT22;6730;46.248;6.930;2023-07-30T15:39:03;23.10;99.40
13322;DHT22;6730;46.248;6.930;2023-07-30T15:41:28;23.00;98.90
13322;DHT22;6730;46.248;6.930;2023-07-30T15:43:54;22.80;98.70
13322;DHT22;6730;46.248;6.930;2023-07-30T15:46:20;22.80;99.10
13322;DHT22;6730;46.248;6.930;2023-07-30T15:48:49;23.00;99.70
13322;DHT22;6730;46.248;6.930;2023-07-30T15:51:15;23.10;99.70
13322;DHT22;6730;46.248;6.930;2023-07-30T15:53:40;23.20;99.60